Time;durP1;ratioP1;P1;durP2;ratioP2;P2;SDS_P1;SDS_P2;PMS_P1;PMS_P2;Temp;Humidity;BMP_temperature;BMP_pressure;BME280_temperature;BME280_humidity;BME280_pressure;Samples;Min_cycle;Max_cycle;Signal;HPM_P1;HPM_P2
2022/01/28 00:02:51;;;;;;;;;;;;;;;16.31;40.83;102399.66;3950313;32;15725595;-71
2022/01/28 00:05:20;;;;;;;;;;;;;;;16.31;40.83;102399.66;4430359;32;19980;-71
2022/01/28 00:07:46;;;;;;;;;;;;;;;15.81;41.38;102396.22;4428995;32;19971;-71
2022/01/28 00:10:11;;;;;;;;;;;;;;;15.45;42.20;102398.09;4431879;32;19954;-72
2022/01/28 00:12:54;;;;;;;;;;;;;;;15.24;43.00;102406.94;4428961;32;20414;-71
2022/01/28 00:15:27;;;;;;;;;;;;;;;15.35;42.45;102408.38;4429839;32;19992;-71
2022/01/28 00:37:10;;;;;;;;;;;;;;;15.09;43.91;102429.06;4428218;32;19953;-70
2022/01/28 00:39:36;;;;;;;;;;;;;;;14.86;44.64;102416.87;4427660;32;20008;-70
2022/01/28 00:42:02;;;;;;;;;;;;;;;14.67;44.95;102429.69;4429940;32;20009;-70
2022/01/28 00:44:28;;;;;;;;;;;;;;;14.77;45.02;102428.75;4430128;32;19967;-70
2022/01/28 00:46:53;;;;;;;;;;;;;;;14.64;45.01;102430.56;4426500;32;20319;-70
2022/01/28 00:49:20;;;;;;;;;;;;;;;15.26;43.82;102438.53;4429518;32;19958;-70
2022/01/28 00:51:45;;;;;;;;;;;;;;;15.19;43.82;102447.94;4428647;32;20402;-70
2022/01/28 00:54:11;;;;;;;;;;;;;;;15.42;43.35;102439.50;4426441;32;19953;-70
2022/01/28 00:56:38;;;;;;;;;;;;;;;15.51;43.23;102436.09;4424895;32;20346;-70
2022/01/28 00:59:03;;;;;;;;;;;;;;;15.50;42.65;102431.66;4427444;32;20288;-70
2022/01/28 01:01:29;;;;;;;;;;;;;;;15.26;42.91;102436.50;4426476;32;19971;-70
2022/01/28 01:03:55;;;;;;;;;;;;;;;15.45;42.20;102423.63;4432242;32;20319;-70
2022/01/28 01:06:21;;;;;;;;;;;;;;;15.53;42.35;102425.91;4426782;32;19953;-70
2022/01/28 01:08:46;;;;;;;;;;;;;;;15.64;42.14;102414.38;4425607;32;19964;-71
2022/01/28 01:11:12;;;;;;;;;;;;;;;15.73;41.88;102426.78;4425322;32;19993;-71
2022/01/28 01:13:40;;;;;;;;;;;;;;;15.75;42.08;102432.03;4431511;32;19981;-71
2022/01/28 01:16:08;;;;;;;;;;;;;;;15.91;41.67;102426.44;4426832;32;20011;-71
2022/01/28 01:18:45;;;;;;;;;;;;;;;15.53;42.47;102419.44;4427727;32;20268;-71
2022/01/28 01:21:17;;;;;;;;;;;;;;;15.64;42.25;102414.38;4428737;32;19991;-71
2022/01/28 01:23:50;;;;;;;;;;;;;;;15.63;42.43;102418.44;4429222;32;20012;-71
2022/01/28 01:26:16;;;;;;;;;;;;;;;15.90;41.86;102422.00;4426437;32;20001;-71
2022/01/28 01:28:42;;;;;;;;;;;;;;;15.89;41.73;102438.22;4428501;32;19963;-71
2022/01/28 01:31:11;;;;;;;;;;;;;;;15.41;42.71;102437.09;4425601;32;20024;-71
2022/01/28 01:33:43;;;;;;;;;;;;;;;15.94;41.76;102429.22;4425011;32;19985;-71
2022/01/28 01:36:09;;;;;;;;;;;;;;;15.84;41.98;102440.78;4428905;32;19963;-71
2022/01/28 01:38:37;;;;;;;;;;;;;;;15.98;41.57;102451.06;4423464;32;19974;-71
2022/01/28 01:41:07;;;;;;;;;;;;;;;15.62;42.38;102446.03;4414993;32;20039;-71
2022/01/28 01:46:23;;;;;;;;;;;;;;;15.69;42.19;102448.75;3951281;32;15724553;-71
2022/01/28 01:52:05;;;;;;;;;;;;;;;15.79;41.62;102453.44;4433052;32;20045;-70
2022/01/28 01:54:20;;;;;;;;;;;;;;;15.95;41.34;102453.53;4435064;32;19996;-71
2022/01/28 01:56:45;;;;;;;;;;;;;;;15.93;41.37;102456.00;4434614;32;20527;-70
2022/01/28 01:59:11;;;;;;;;;;;;;;;15.89;41.37;102454.44;4433941;32;20052;-70
2022/01/28 02:01:38;;;;;;;;;;;;;;;15.96;41.36;102460.81;4432255;32;20476;-70
2022/01/28 02:04:05;;;;;;;;;;;;;;;15.96;41.33;102474.22;4433125;32;19961;-70
2022/01/28 02:06:31;;;;;;;;;;;;;;;15.95;41.40;102475.44;4433442;32;20013;-70
2022/01/28 02:08:56;;;;;;;;;;;;;;;16.01;41.23;102479.38;4436310;32;20694;-70
2022/01/28 02:11:22;;;;;;;;;;;;;;;15.91;41.25;102480.38;4432342;32;20003;-70
2022/01/28 02:13:49;;;;;;;;;;;;;;;15.85;41.46;102482.13;4436795;32;19961;-70
2022/01/28 02:16:14;;;;;;;;;;;;;;;15.68;41.20;102489.72;4422556;32;20005;-70
2022/01/28 02:18:40;;;;;;;;;;;;;;;15.61;41.67;102494.69;4434471;32;20220;-70
2022/01/28 02:21:09;;;;;;;;;;;;;;;15.55;41.70;102485.06;4436018;32;20004;-70
2022/01/28 02:23:36;;;;;;;;;;;;;;;15.55;41.90;102479.41;4429935;32;19991;-70
2022/01/28 02:26:03;;;;;;;;;;;;;;;15.44;42.09;102481.63;4432867;32;20015;-70
2022/01/28 02:28:33;;;;;;;;;;;;;;;15.55;42.04;102473.72;4434577;32;20382;-70
2022/01/28 02:31:00;;;;;;;;;;;;;;;15.51;41.90;102473.81;4425275;32;19996;-70
2022/01/28 02:33:26;;;;;;;;;;;;;;;15.38;42.40;102475.66;4428944;32;20373;-70
2022/01/28 02:35:52;;;;;;;;;;;;;;;15.27;42.71;102483.47;4433772;32;19997;-70
2022/01/28 02:38:20;;;;;;;;;;;;;;;15.41;42.76;102488.16;4433128;32;19965;-70
2022/01/28 02:40:53;;;;;;;;;;;;;;;15.36;43.04;102495.09;4431387;32;20350;-70
2022/01/28 02:45:56;;;;;;;;;;;;;;;15.27;43.45;102488.34;3951348;32;15726567;-71
2022/01/28 02:48:26;;;;;;;;;;;;;;;15.43;42.64;102488.50;4423425;32;20095;-71
2022/01/28 02:53:38;;;;;;;;;;;;;;;16.41;41.07;102489.72;3951539;32;15722430;-71
2022/01/28 02:56:12;;;;;;;;;;;;;;;16.43;41.06;102483.44;4430749;32;20444;-71
2022/01/28 02:58:38;;;;;;;;;;;;;;;16.03;41.29;102488.28;4426765;32;20039;-71
2022/01/28 03:01:04;;;;;;;;;;;;;;;15.96;41.16;102477.06;4425514;32;19997;-71
2022/01/28 03:03:29;;;;;;;;;;;;;;;15.95;41.43;102466.91;4426652;32;20001;-71
2022/01/28 03:05:54;;;;;;;;;;;;;;;16.17;41.01;102475.84;4429418;32;19966;-71
2022/01/28 03:08:24;;;;;;;;;;;;;;;16.20;40.98;102470.06;4429379;32;20008;-71
2022/01/28 03:11:15;;;;;;;;;;;;;;;15.95;41.26;102456.38;4430410;32;20005;-71
2022/01/28 03:16:16;;;;;;;;;;;;;;;16.75;40.38;102473.00;3953952;32;15723551;-71
2022/01/28 03:18:51;;;;;;;;;;;;;;;16.75;40.38;102473.00;4428549;32;20034;-71
2022/01/28 03:21:24;;;;;;;;;;;;;;;16.32;40.69;102468.66;4426613;32;20008;-71
2022/01/28 03:23:50;;;;;;;;;;;;;;;15.88;41.64;102469.91;4428033;32;20010;-71
2022/01/28 03:26:16;;;;;;;;;;;;;;;16.19;40.96;102457.13;4428264;32;20264;-71
2022/01/28 03:28:41;;;;;;;;;;;;;;;16.11;41.07;102461.34;4431131;32;20215;-71
2022/01/28 03:31:07;;;;;;;;;;;;;;;16.01;41.35;102455.88;4425885;32;19997;-71
2022/01/28 03:33:33;;;;;;;;;;;;;;;16.05;41.28;102457.41;4427652;32;19992;-71
2022/01/28 03:36:01;;;;;;;;;;;;;;;16.12;41.17;102454.44;4432285;32;19954;-71
2022/01/28 03:38:27;;;;;;;;;;;;;;;15.93;41.27;102460.87;4427565;32;20001;-71
2022/01/28 03:40:55;;;;;;;;;;;;;;;16.06;41.32;102456.16;4426446;32;19957;-71
2022/01/28 03:43:20;;;;;;;;;;;;;;;15.66;42.43;102445.97;4427377;32;19972;-71
2022/01/28 03:45:46;;;;;;;;;;;;;;;15.71;42.45;102448.31;4431214;32;19957;-71
2022/01/28 03:48:11;;;;;;;;;;;;;;;15.94;42.20;102451.94;4430176;32;20106;-71
2022/01/28 03:50:37;;;;;;;;;;;;;;;15.80;42.31;102434.34;4428132;32;19968;-71
2022/01/28 03:53:03;;;;;;;;;;;;;;;16.17;41.74;102453.13;4428947;32;20010;-71
2022/01/28 03:55:29;;;;;;;;;;;;;;;16.34;41.16;102449.91;4415500;32;20291;-71
2022/01/28 03:57:55;;;;;;;;;;;;;;;16.26;41.23;102451.28;4428677;32;19949;-71
2022/01/28 04:00:25;;;;;;;;;;;;;;;16.46;40.91;102434.28;4427061;32;20339;-71
2022/01/28 04:03:01;;;;;;;;;;;;;;;16.32;41.06;102431.72;4427719;32;20026;-71
2022/01/28 04:11:31;;;;;;;;;;;;;;;16.41;40.86;102440.44;4431320;32;20384;-71
2022/01/28 04:13:50;;;;;;;;;;;;;;;16.09;41.21;102440.28;4428294;32;19960;-71
2022/01/28 04:18:51;;;;;;;;;;;;;;;15.50;42.77;102454.38;3952040;32;15725568;-71
2022/01/28 04:21:17;;;;;;;;;;;;;;;15.50;42.77;102454.38;4430145;32;19966;-71
2022/01/28 04:23:43;;;;;;;;;;;;;;;15.10;43.33;102453.34;4431062;32;20404;-71
2022/01/28 04:26:09;;;;;;;;;;;;;;;15.28;42.88;102459.53;4430312;32;20283;-71
2022/01/28 04:28:34;;;;;;;;;;;;;;;15.20;42.95;102468.59;4430153;32;20901;-71
2022/01/28 04:31:00;;;;;;;;;;;;;;;15.14;42.92;102471.13;4428704;32;19949;-71
2022/01/28 04:33:26;;;;;;;;;;;;;;;15.12;43.03;102473.56;4426038;32;20006;-71
2022/01/28 04:35:54;;;;;;;;;;;;;;;15.20;43.00;102474.28;4426632;32;20008;-71
2022/01/28 04:41:39;;;;;;;;;;;;;;;15.68;42.71;102478.34;3948496;32;15723587;-72
2022/01/28 04:43:49;;;;;;;;;;;;;;;15.68;42.71;102478.34;4431773;32;20097;-72
2022/01/28 04:46:31;;;;;;;;;;;;;;;15.35;42.90;102481.34;4431925;32;19953;-72
2022/01/28 05:13:24;;;;;;;;;;;;;;;16.01;42.30;102487.13;4430394;32;19997;-70
2022/01/28 05:15:54;;;;;;;;;;;;;;;15.65;43.00;102472.75;4432880;32;20406;-70
2022/01/28 05:26:38;;;;;;;;;;;;;;;15.59;42.74;102502.88;4431761;32;20004;-70
2022/01/28 05:29:04;;;;;;;;;;;;;;;15.70;42.59;102486.44;4428165;32;21177;-70
2022/01/28 05:31:30;;;;;;;;;;;;;;;15.76;42.30;102485.53;4429647;32;20182;-70
2022/01/28 05:33:55;;;;;;;;;;;;;;;15.87;42.28;102491.00;4427796;32;20001;-70
2022/01/28 05:36:21;;;;;;;;;;;;;;;15.84;42.14;102494.72;4433551;32;19968;-71
2022/01/28 05:38:46;;;;;;;;;;;;;;;16.02;42.03;102486.69;4429458;32;19985;-70
2022/01/28 05:41:12;;;;;;;;;;;;;;;16.08;42.26;102493.47;4435591;32;20049;-72
2022/01/28 05:43:37;;;;;;;;;;;;;;;16.17;41.69;102492.88;4431643;32;20011;-72
2022/01/28 05:46:03;;;;;;;;;;;;;;;16.24;41.91;102493.56;4431787;32;19984;-72
2022/01/28 05:48:28;;;;;;;;;;;;;;;16.31;42.00;102493.41;4430773;32;19957;-71
2022/01/28 05:50:54;;;;;;;;;;;;;;;16.26;41.70;102482.53;4432813;32;19993;-71
2022/01/28 05:53:19;;;;;;;;;;;;;;;16.25;42.23;102478.09;4428449;32;19965;-71
2022/01/28 05:55:45;;;;;;;;;;;;;;;16.25;41.76;102466.75;4433877;32;20039;-70
2022/01/28 05:58:11;;;;;;;;;;;;;;;16.20;41.98;102450.19;4426824;32;20093;-70
2022/01/28 06:00:36;;;;;;;;;;;;;;;16.07;42.43;102454.13;4429364;32;19956;-70
2022/01/28 06:03:02;;;;;;;;;;;;;;;16.10;41.86;102461.78;4425254;32;20394;-70
2022/01/28 06:05:30;;;;;;;;;;;;;;;16.08;42.08;102452.88;4431245;32;20015;-70
2022/01/28 06:07:57;;;;;;;;;;;;;;;16.01;42.34;102450.97;4430831;32;20015;-71
2022/01/28 06:10:23;;;;;;;;;;;;;;;15.99;42.40;102456.31;4431526;32;19999;-70
2022/01/28 06:12:48;;;;;;;;;;;;;;;15.95;42.49;102449.88;4428535;32;19958;-70
2022/01/28 06:15:14;;;;;;;;;;;;;;;15.74;42.26;102465.28;4428464;32;19957;-70
2022/01/28 06:17:40;;;;;;;;;;;;;;;15.60;42.95;102459.06;4427789;32;20345;-70
2022/01/28 06:20:07;;;;;;;;;;;;;;;15.44;43.75;102467.44;4422584;32;20385;-70
2022/01/28 06:22:36;;;;;;;;;;;;;;;15.54;43.36;102455.91;4423277;32;20104;-70
2022/01/28 06:25:02;;;;;;;;;;;;;;;15.54;43.31;102452.25;4422918;32;19953;-71
2022/01/28 06:27:28;;;;;;;;;;;;;;;15.67;43.26;102468.25;4421164;32;19965;-70
2022/01/28 06:29:54;;;;;;;;;;;;;;;15.63;43.40;102475.22;4422906;32;19957;-70
2022/01/28 06:32:19;;;;;;;;;;;;;;;15.48;43.81;102471.00;4417215;32;20304;-71
2022/01/28 06:34:45;;;;;;;;;;;;;;;15.55;43.71;102476.56;4420111;32;20271;-71
2022/01/28 06:37:11;;;;;;;;;;;;;;;15.65;43.36;102459.34;4421088;32;20388;-71
2022/01/28 06:39:36;;;;;;;;;;;;;;;15.56;43.72;102449.81;4419578;32;19984;-71
2022/01/28 06:42:02;;;;;;;;;;;;;;;15.51;43.70;102444.59;4416424;32;20302;-71
2022/01/28 06:44:30;;;;;;;;;;;;;;;15.48;43.70;102428.44;4417481;32;19962;-71
2022/01/28 06:46:55;;;;;;;;;;;;;;;15.52;43.44;102423.50;4415612;32;20435;-71
2022/01/28 06:49:21;;;;;;;;;;;;;;;15.40;43.75;102432.66;4419920;32;20001;-71
2022/01/28 06:51:47;;;;;;;;;;;;;;;15.20;43.83;102434.56;4418808;32;19988;-71
2022/01/28 06:54:13;;;;;;;;;;;;;;;15.16;44.02;102442.34;4417700;32;20040;-71
2022/01/28 06:56:39;;;;;;;;;;;;;;;15.16;44.33;102428.94;4421813;32;20000;-73
2022/01/28 06:59:04;;;;;;;;;;;;;;;14.98;44.79;102439.78;4419797;32;19990;-71
2022/01/28 07:01:30;;;;;;;;;;;;;;;14.97;44.77;102434.53;4414048;32;20472;-71
2022/01/28 07:03:55;;;;;;;;;;;;;;;15.06;44.46;102431.94;4420061;32;19996;-71
2022/01/28 07:06:22;;;;;;;;;;;;;;;14.96;44.75;102432.91;4419915;32;20067;-71
2022/01/28 07:08:48;;;;;;;;;;;;;;;14.85;45.06;102424.56;4419567;32;19961;-71
2022/01/28 07:11:14;;;;;;;;;;;;;;;14.86;45.06;102428.22;4415998;32;20056;-71
2022/01/28 07:13:40;;;;;;;;;;;;;;;14.83;44.79;102424.22;4420502;32;19996;-71
2022/01/28 07:16:06;;;;;;;;;;;;;;;15.00;44.78;102419.50;4418732;32;20003;-71
2022/01/28 07:18:31;;;;;;;;;;;;;;;15.02;44.98;102428.38;4418240;32;19991;-71
2022/01/28 07:20:57;;;;;;;;;;;;;;;14.87;45.22;102424.13;4412125;32;20272;-71
2022/01/28 07:23:22;;;;;;;;;;;;;;;14.99;44.82;102446.22;4415914;32;20005;-71
2022/01/28 07:25:49;;;;;;;;;;;;;;;15.03;44.67;102452.69;4418276;32;20802;-71
2022/01/28 07:28:14;;;;;;;;;;;;;;;15.05;44.72;102445.34;4418906;32;20617;-71
2022/01/28 07:30:40;;;;;;;;;;;;;;;15.06;44.64;102449.78;4422715;32;20333;-71
2022/01/28 07:33:08;;;;;;;;;;;;;;;15.02;44.71;102463.22;4416194;32;20012;-71
2022/01/28 07:35:34;;;;;;;;;;;;;;;15.06;44.73;102458.28;4416694;32;20062;-71
2022/01/28 07:38:00;;;;;;;;;;;;;;;15.17;44.58;102444.75;4419933;32;19974;-71
2022/01/28 07:40:26;;;;;;;;;;;;;;;15.12;44.53;102450.87;4417399;32;21350;-71
2022/01/28 07:42:52;;;;;;;;;;;;;;;15.20;44.49;102449.56;4417017;32;20107;-71
2022/01/28 07:45:18;;;;;;;;;;;;;;;15.23;44.51;102448.69;4414653;32;19985;-71
2022/01/28 07:47:43;;;;;;;;;;;;;;;15.24;44.38;102449.47;4411020;32;19977;-71
2022/01/28 07:50:10;;;;;;;;;;;;;;;15.29;44.46;102451.84;4403792;32;20057;-71
2022/01/28 07:52:36;;;;;;;;;;;;;;;15.29;43.99;102452.66;4410882;32;19992;-71
2022/01/28 07:55:02;;;;;;;;;;;;;;;15.31;44.39;102458.69;4412614;32;20327;-72
2022/01/28 07:57:30;;;;;;;;;;;;;;;15.40;44.47;102458.97;4409765;32;20387;-71
2022/01/28 07:59:56;;;;;;;;;;;;;;;15.50;44.28;102460.03;4411131;32;20025;-71
2022/01/28 08:02:27;;;;;;;;;;;;;;;15.40;44.38;102473.16;4409259;32;19989;-71
2022/01/28 08:04:53;;;;;;;;;;;;;;;15.56;43.77;102467.63;4409137;32;20068;-71
2022/01/28 08:07:19;;;;;;;;;;;;;;;15.80;43.43;102468.41;4407699;32;20004;-71
2022/01/28 08:09:44;;;;;;;;;;;;;;;15.94;43.26;102479.53;4407209;32;20005;-72
2022/01/28 08:12:10;;;;;;;;;;;;;;;16.02;43.24;102466.81;4408050;32;20315;-72
2022/01/28 08:14:36;;;;;;;;;;;;;;;16.10;42.90;102470.31;4408316;32;19965;-72
2022/01/28 08:17:02;;;;;;;;;;;;;;;16.15;43.17;102473.44;4411059;32;19962;-72
2022/01/28 08:19:28;;;;;;;;;;;;;;;16.03;42.99;102474.06;4409169;32;20001;-72
2022/01/28 08:21:54;;;;;;;;;;;;;;;16.05;43.14;102463.09;4407886;32;20342;-71
2022/01/28 08:24:20;;;;;;;;;;;;;;;15.90;43.26;102465.38;4408351;32;20016;-72
2022/01/28 08:26:45;;;;;;;;;;;;;;;16.19;42.88;102468.47;4409914;32;19961;-72
2022/01/28 08:29:11;;;;;;;;;;;;;;;16.31;42.98;102465.00;4409433;32;19997;-71
2022/01/28 08:31:37;;;;;;;;;;;;;;;16.24;42.72;102459.47;4407869;32;19995;-72
2022/01/28 08:34:03;;;;;;;;;;;;;;;16.33;42.78;102461.72;4407372;32;20882;-71
2022/01/28 08:36:29;;;;;;;;;;;;;;;16.50;42.09;102450.00;4406829;32;20000;-71
2022/01/28 08:38:55;;;;;;;;;;;;;;;16.42;42.70;102442.84;4404364;32;19957;-72
2022/01/28 08:41:22;;;;;;;;;;;;;;;16.56;42.70;102441.75;4405759;32;20016;-71
2022/01/28 08:43:48;;;;;;;;;;;;;;;16.46;42.87;102449.28;4407358;32;19993;-72
2022/01/28 08:46:13;;;;;;;;;;;;;;;16.63;42.67;102442.41;4406989;32;20005;-71
2022/01/28 08:48:39;;;;;;;;;;;;;;;16.80;42.33;102437.56;4407603;32;20032;-69
2022/01/28 08:51:05;;;;;;;;;;;;;;;16.92;42.17;102434.03;4404657;32;20020;-70
2022/01/28 08:53:31;;;;;;;;;;;;;;;16.98;42.16;102430.25;4408879;32;20022;-71
2022/01/28 08:55:57;;;;;;;;;;;;;;;16.98;41.69;102446.50;4408689;32;20155;-73
2022/01/28 08:58:22;;;;;;;;;;;;;;;17.06;41.75;102453.63;4407591;32;20001;-72
2022/01/28 09:00:50;;;;;;;;;;;;;;;17.19;41.72;102443.97;4403648;32;19997;-72
2022/01/28 09:03:16;;;;;;;;;;;;;;;17.16;41.34;102422.09;4407431;32;19998;-73
2022/01/28 09:05:42;;;;;;;;;;;;;;;17.23;41.32;102421.91;4409927;32;20436;-73
2022/01/28 09:08:09;;;;;;;;;;;;;;;17.03;41.54;102412.63;4408975;32;19997;-74
2022/01/28 09:10:37;;;;;;;;;;;;;;;16.91;41.71;102399.09;4411491;32;20517;-73
2022/01/28 09:15:41;;;;;;;;;;;;;;;17.37;41.30;102421.53;3943738;32;15724382;-73
2022/01/28 09:18:09;;;;;;;;;;;;;;;17.37;41.30;102421.53;4424956;32;19986;-74
2022/01/28 09:20:35;;;;;;;;;;;;;;;16.99;41.89;102403.37;4420918;32;19946;-73
2022/01/28 09:23:01;;;;;;;;;;;;;;;17.14;41.46;102412.38;4420294;32;19968;-73
2022/01/28 09:25:27;;;;;;;;;;;;;;;17.10;41.30;102403.13;4422012;32;20362;-73
2022/01/28 09:27:53;;;;;;;;;;;;;;;17.33;40.98;102400.91;4410023;32;20358;-73
2022/01/28 09:30:18;;;;;;;;;;;;;;;17.60;40.43;102403.50;4420240;32;19977;-73
2022/01/28 09:32:44;;;;;;;;;;;;;;;17.35;40.93;102378.50;4406552;32;20001;-73
2022/01/28 09:35:10;;;;;;;;;;;;;;;17.34;40.78;102378.94;4420361;32;19976;-72
2022/01/28 09:37:35;;;;;;;;;;;;;;;16.76;41.69;102375.13;4418380;32;20005;-72
2022/01/28 09:40:03;;;;;;;;;;;;;;;16.70;42.01;102374.03;4422856;32;20016;-73
2022/01/28 09:42:35;;;;;;;;;;;;;;;16.87;41.51;102389.87;4420099;32;19989;-72
2022/01/28 09:45:03;;;;;;;;;;;;;;;17.13;41.63;102396.56;4422714;32;19957;-72
2022/01/28 09:47:30;;;;;;;;;;;;;;;17.15;41.24;102377.78;4410397;32;20037;-73
2022/01/28 09:49:56;;;;;;;;;;;;;;;17.34;40.53;102404.56;4419325;32;19985;-73
2022/01/28 09:52:21;;;;;;;;;;;;;;;17.40;40.60;102409.25;4421841;32;20326;-72
2022/01/28 09:54:47;;;;;;;;;;;;;;;17.51;40.51;102406.16;4422767;32;20000;-71
2022/01/28 09:57:16;;;;;;;;;;;;;;;17.56;40.47;102395.06;4421939;32;20016;-71
2022/01/28 09:59:42;;;;;;;;;;;;;;;17.01;41.14;102366.78;4420727;32;20004;-72
2022/01/28 10:02:08;;;;;;;;;;;;;;;16.94;41.63;102384.00;4422702;32;20317;-72
2022/01/28 10:04:33;;;;;;;;;;;;;;;16.93;41.74;102382.41;4422971;32;20016;-73
2022/01/28 10:07:08;;;;;;;;;;;;;;;17.11;41.44;102390.50;4422536;32;20035;-72
2022/01/28 10:09:33;;;;;;;;;;;;;;;16.97;41.47;102385.19;4421288;32;20346;-72
2022/01/28 10:12:12;;;;;;;;;;;;;;;16.56;42.21;102380.03;4423472;32;20002;-71
2022/01/28 10:14:58;;;;;;;;;;;;;;;16.38;42.70;102384.50;4422368;32;19970;-71
2022/01/28 10:17:24;;;;;;;;;;;;;;;16.59;42.38;102376.31;4421516;32;20062;-72
2022/01/28 10:19:50;;;;;;;;;;;;;;;16.37;42.73;102369.47;4419843;32;20057;-72
2022/01/28 10:22:16;;;;;;;;;;;;;;;16.46;42.59;102363.22;4417656;32;19968;-73
2022/01/28 10:24:42;;;;;;;;;;;;;;;16.75;41.95;102361.34;4420559;32;19985;-73
2022/01/28 10:27:09;;;;;;;;;;;;;;;16.73;41.91;102358.13;4409458;32;19972;-73
2022/01/28 10:29:39;;;;;;;;;;;;;;;17.00;41.46;102356.63;4408907;32;20340;-73
2022/01/28 10:32:05;;;;;;;;;;;;;;;17.17;40.75;102358.25;4405305;32;20045;-73
2022/01/28 10:42:20;;;;;;;;;;;;;;;18.34;38.29;102356.59;3946361;32;15722561;-73
2022/01/28 10:45:10;;;;;;;;;;;;;;;18.34;38.29;102356.59;4418400;32;20040;-73
2022/01/28 10:50:22;;;;;;;;;;;;;;;18.94;37.34;102352.66;3947892;32;15722632;-74
2022/01/28 10:52:56;;;;;;;;;;;;;;;18.94;37.34;102352.66;4427072;32;20007;-74
2022/01/28 10:55:22;;;;;;;;;;;;;;;18.07;38.11;102355.37;4427492;32;20036;-74
2022/01/28 10:57:55;;;;;;;;;;;;;;;17.96;38.70;102357.75;4426352;32;20028;-74
2022/01/28 11:00:21;;;;;;;;;;;;;;;17.38;39.69;102336.97;4428623;32;20424;-74
2022/01/28 11:02:48;;;;;;;;;;;;;;;17.09;40.32;102331.19;4427473;32;19984;-73
2022/01/28 11:05:13;;;;;;;;;;;;;;;17.01;40.26;102334.69;4426662;32;20157;-73
2022/01/28 11:07:39;;;;;;;;;;;;;;;17.51;39.98;102347.19;4425026;32;20008;-73
2022/01/28 11:10:05;;;;;;;;;;;;;;;17.22;40.32;102323.56;4426238;32;20240;-73
2022/01/28 11:12:30;;;;;;;;;;;;;;;17.02;40.74;102314.31;4427465;32;20009;-73
2022/01/28 11:14:57;;;;;;;;;;;;;;;17.32;40.26;102301.75;4425605;32;20560;-74
2022/01/28 11:17:23;;;;;;;;;;;;;;;17.30;40.48;102295.69;4427623;32;20206;-72
2022/01/28 11:19:51;;;;;;;;;;;;;;;17.12;40.87;102295.41;4427719;32;20013;-73
2022/01/28 11:22:39;;;;;;;;;;;;;;;17.24;40.62;102303.19;4423373;32;19969;-73
2022/01/28 11:28:03;;;;;;;;;;;;;;;18.30;38.63;102315.19;3953661;32;15728655;-72
2022/01/28 11:30:29;;;;;;;;;;;;;;;18.30;38.63;102315.19;4432047;32;19961;-73
2022/01/28 11:33:05;;;;;;;;;;;;;;;18.05;39.05;102307.41;4430584;32;20476;-71
2022/01/28 11:38:27;;;;;;;;;;;;;;;19.45;36.63;102310.53;3949904;32;15723574;-73
2022/01/28 11:40:56;;;;;;;;;;;;;;;19.45;36.63;102310.53;4425591;32;19961;-75
2022/01/28 11:43:23;;;;;;;;;;;;;;;19.17;36.55;102294.37;4414203;32;20364;-72
2022/01/28 11:46:04;;;;;;;;;;;;;;;19.40;36.25;102288.31;4426260;32;20016;-72
2022/01/28 11:48:49;;;;;;;;;;;;;;;19.31;36.39;102269.03;4426867;32;20082;-73
2022/01/28 11:51:15;;;;;;;;;;;;;;;19.05;36.54;102261.78;4426461;32;20330;-73
2022/01/28 11:53:58;;;;;;;;;;;;;;;19.33;36.25;102263.66;4425727;32;20065;-73
2022/01/28 11:56:25;;;;;;;;;;;;;;;19.20;36.19;102254.31;4424041;32;20865;-73
2022/01/28 11:58:53;;;;;;;;;;;;;;;19.64;36.00;102249.47;4426533;32;20305;-73
2022/01/28 12:01:25;;;;;;;;;;;;;;;19.68;35.61;102250.94;4426718;32;20503;-73
2022/01/28 12:03:51;;;;;;;;;;;;;;;19.88;35.52;102247.72;4426538;32;19997;-73
2022/01/28 12:06:18;;;;;;;;;;;;;;;19.63;35.45;102247.84;4425976;32;20015;-73
2022/01/28 12:08:44;;;;;;;;;;;;;;;19.22;36.16;102251.00;4427523;32;20636;-73
2022/01/28 12:11:12;;;;;;;;;;;;;;;19.45;35.80;102239.16;4424262;32;20013;-73
2022/01/28 12:14:02;;;;;;;;;;;;;;;19.61;35.52;102238.97;4424955;32;19985;-73
2022/01/28 12:16:30;;;;;;;;;;;;;;;19.52;35.68;102216.84;4424260;32;19961;-73
2022/01/28 12:18:57;;;;;;;;;;;;;;;19.28;36.05;102212.87;4427698;32;19957;-73
2022/01/28 12:21:24;;;;;;;;;;;;;;;18.96;36.90;102190.34;4424299;32;19984;-73
2022/01/28 12:23:53;;;;;;;;;;;;;;;19.02;36.47;102202.00;4412204;32;20013;-73
2022/01/28 12:26:19;;;;;;;;;;;;;;;19.08;36.53;102198.06;4412236;32;20011;-73
2022/01/28 12:28:49;;;;;;;;;;;;;;;19.07;36.95;102192.81;4425666;32;20386;-73
2022/01/28 12:33:54;;;;;;;;;;;;;;;19.08;37.63;102248.62;3946781;32;15725499;-74
2022/01/28 12:36:24;;;;;;;;;;;;;;;19.08;37.63;102248.62;4431587;32;21544;-73
2022/01/28 12:39:08;;;;;;;;;;;;;;;19.01;37.74;102237.47;4432609;32;20453;-72
2022/01/28 12:41:42;;;;;;;;;;;;;;;18.63;38.56;102236.75;4431043;32;20578;-71
2022/01/28 12:44:09;;;;;;;;;;;;;;;18.72;38.38;102219.75;4431918;32;19995;-72
2022/01/28 12:46:36;;;;;;;;;;;;;;;18.52;39.03;102222.87;4427631;32;19994;-73
2022/01/28 12:49:02;;;;;;;;;;;;;;;18.58;38.76;102214.53;4429753;32;20460;-72
2022/01/28 12:51:28;;;;;;;;;;;;;;;18.81;38.44;102191.31;4429854;32;20005;-72
2022/01/28 12:53:54;;;;;;;;;;;;;;;18.73;38.52;102196.47;4432820;32;19988;-72
2022/01/28 12:59:10;;;;;;;;;;;;;;;19.51;37.64;102175.28;3944440;31;15719602;-73
2022/01/28 13:01:37;;;;;;;;;;;;;;;19.51;37.64;102175.28;4425716;32;20315;-72
2022/01/28 13:04:15;;;;;;;;;;;;;;;19.38;37.81;102179.47;4425006;32;20327;-73
2022/01/28 13:09:25;;;;;;;;;;;;;;;19.29;38.05;102188.75;3947114;32;15725023;-73
2022/01/28 13:11:52;;;;;;;;;;;;;;;19.09;38.04;102193.16;4428144;32;20231;-72
2022/01/28 13:14:19;;;;;;;;;;;;;;;19.05;38.34;102189.66;4426593;32;20088;-73
2022/01/28 13:16:46;;;;;;;;;;;;;;;18.90;38.47;102182.84;4409002;32;19993;-73
2022/01/28 13:19:12;;;;;;;;;;;;;;;18.93;38.67;102182.72;4424645;32;19992;-73
2022/01/28 13:21:40;;;;;;;;;;;;;;;18.69;38.74;102184.41;4423018;32;20302;-73
2022/01/28 13:24:08;;;;;;;;;;;;;;;18.72;38.99;102179.81;4420267;32;19986;-74
2022/01/28 13:26:34;;;;;;;;;;;;;;;18.80;38.67;102169.75;4419891;32;20225;-74
2022/01/28 13:29:04;;;;;;;;;;;;;;;18.68;39.03;102162.84;4411732;32;19961;-74
2022/01/28 13:31:30;;;;;;;;;;;;;;;18.57;39.17;102165.28;4421901;32;19993;-72
2022/01/28 13:33:59;;;;;;;;;;;;;;;18.49;39.74;102158.19;4425937;32;20404;-73
2022/01/28 13:36:25;;;;;;;;;;;;;;;18.57;39.28;102168.13;4420621;32;20309;-72
2022/01/28 13:38:51;;;;;;;;;;;;;;;18.52;39.60;102167.88;4424736;32;19993;-72
2022/01/28 13:41:21;;;;;;;;;;;;;;;18.78;38.96;102160.88;4423008;32;19965;-72
2022/01/28 13:43:46;;;;;;;;;;;;;;;18.77;39.18;102157.22;4422182;32;19984;-73
2022/01/28 13:46:13;;;;;;;;;;;;;;;18.96;38.53;102156.09;4420894;32;20001;-73
2022/01/28 13:48:40;;;;;;;;;;;;;;;19.15;38.27;102142.81;4418479;32;20035;-73
2022/01/28 13:51:16;;;;;;;;;;;;;;;19.13;38.67;102131.84;4420398;32;20004;-72
2022/01/28 13:56:43;;;;;;;;;;;;;;;19.50;38.18;102115.78;3932265;32;15731372;-73
2022/01/28 13:59:10;;;;;;;;;;;;;;;19.54;37.85;102125.78;4406424;32;19957;-73
2022/01/28 14:01:36;;;;;;;;;;;;;;;19.28;38.38;102117.87;4405598;32;20189;-73
2022/01/28 14:04:03;;;;;;;;;;;;;;;19.26;38.33;102114.63;4401502;32;20544;-73
2022/01/28 14:06:29;;;;;;;;;;;;;;;19.51;37.99;102111.66;4390615;32;20001;-72
2022/01/28 14:11:35;;;;;;;;;;;;;;;19.26;38.37;102101.19;3922456;32;15740460;-72
2022/01/28 14:14:23;;;;;;;;;;;;;;;19.23;38.46;102104.97;4393699;32;19994;-74
2022/01/28 14:16:51;;;;;;;;;;;;;;;19.22;38.58;102091.97;4398791;32;20689;-73
2022/01/28 14:19:17;;;;;;;;;;;;;;;19.17;38.62;102086.03;4397043;32;20009;-73
2022/01/28 14:21:44;;;;;;;;;;;;;;;19.23;38.47;102078.47;4393559;32;20966;-72
2022/01/28 14:24:12;;;;;;;;;;;;;;;19.36;38.29;102090.66;4395975;32;20659;-72
2022/01/28 14:26:43;;;;;;;;;;;;;;;19.07;39.17;102079.47;4395009;32;20076;-72
2022/01/28 14:31:55;;;;;;;;;;;;;;;19.19;38.93;102069.25;4393324;32;20012;-71